Weather observations for the past three days for
Martinsville
Imperial (Metric)
Date Time (edt) Wind (mph) Vis. (mi.) Weather Sky Cond. Temperature (ºF) Relative Humidity Wind Chill (°F) Heat Index (°F) Pressure Precipitation (in)
Air Dwpt 6 hour altimeter (in) sea level (mb) 1 hr 3 hr 6 hr
Max. Min.
05 18:55 SW 10 10.00 Fair CLR 74.8 33.1 22% 29.93 0.0
05 18:35 SW 8 G 21 10.00 Fair CLR 76.8 32.2 20% 77 29.93 0.0
05 18:15 SW 12 G 20 10.00 Fair CLR 78.1 31.8 18% 77 29.93 0.0
05 17:55 SW 13 G 17 10.00 Fair CLR 75.7 31.5 20% 76 29.94 0.0
05 17:35 SW 8 G 24 10.00 Fair CLR 76.8 29.7 18% 77 29.94 0.0
05 17:15 SW 10 G 22 10.00 Fair CLR 78.8 31.3 18% 78 29.93 0.0
05 16:55 SW 14 G 24 10.00 Fair CLR 78.8 31.5 18% 78 29.94 0.0
05 16:35 SW 18 G 23 10.00 Fair CLR 78.4 30.6 17% 78 29.94 0.0
05 16:15 SW 13 G 18 10.00 Fair CLR 78.3 32 19% 77 29.95 0.0
05 15:55 S 12 G 20 10.00 Fair CLR 77.2 31.6 19% 77 29.96 0.0
05 15:35 SW 15 G 23 10.00 Fair CLR 78.1 29.1 17% 77 29.97 0.0
05 15:15 SW 8 G 17 10.00 Fair CLR 78.8 32.2 18% 78 29.97 0.0
05 14:55 S 12 G 23 10.00 Fair CLR 77.7 32.5 19% 77 29.98 0.0
05 14:35 SW 12 G 23 10.00 Fair CLR 77.9 32.9 19% 77 29.99 0.0
05 14:15 SW 8 G 18 10.00 Fair CLR 76.8 34.5 21% 77 29.99 0.0
05 13:55 SW 10 G 18 10.00 Fair CLR 76.6 34.5 77.5 48.2 22% 77 30 0.0
05 13:35 S 9 G 18 10.00 Fair CLR 75.6 34.3 22% 76 30 0.0
05 13:15 SW 10 10.00 Fair CLR 77.2 33.4 20% 77 30 0.0
05 12:55 SW 7 10.00 Fair CLR 75.6 34.9 23% 77 30.01 0.0
05 12:35 S 10 10.00 Fair CLR 74.5 37 26% 30.02 0.0
05 12:15 W 7 10.00 Fair CLR 73.9 38.3 28% 30.03 0.0
05 11:55 SW 8 10.00 Fair CLR 72.7 39 30% 30.04 0.0
05 11:35 SW 7 10.00 Fair CLR 71.6 38.8 30% 30.04 0.0
05 11:15 SW 7 10.00 Fair CLR 70.9 39.7 32% 30.04 0.0
05 10:55 SW 6 10.00 Fair CLR 69.6 40.1 34% 30.04 0.0
05 10:35 SW 3 10.00 Fair CLR 68 38.8 34% 30.04 0.0
05 10:15 SW 8 10.00 Fair CLR 66.4 39.7 38% 30.04 0.0
05 09:55 SW 7 10.00 Fair CLR 64.6 40.3 41% 30.04 0.0
05 09:35 S 8 10.00 Fair CLR 62.8 40.3 44% 30.03 0.0
05 09:15 S 8 10.00 Fair CLR 60.8 39.7 46% 30.03 0.0
05 08:55 SW 5 10.00 Fair CLR 59.7 40.1 48% 30.03 0.0
05 08:35 S 6 10.00 Fair CLR 57.4 39.7 52% 30.03 0.0
05 08:15 S 3 10.00 Fair CLR 54.1 40.5 60% 30.03 0.0
05 07:55 Calm 10.00 Fair CLR 47.8 40.1 52.9 40.1 75% 30.03 0.0
05 07:35 Calm 10.00 Fair CLR 44.8 39.7 83% 30.03 0.0
05 07:15 Calm 10.00 Fair CLR 42.4 37.8 84% 30.02 0.0
05 06:55 Calm 10.00 Fair CLR 40.5 36 84% 30.02 0.0
05 06:35 Calm 10.00 Fair CLR 41 36.7 85% 30.01 0.0
05 06:15 Calm 10.00 Fair CLR 41.4 36.9 84% 30.01 0.0
05 05:55 Calm 10.00 Fair CLR 41.9 36.5 81% 30.01 0.0
05 05:35 Calm 10.00 Fair CLR 42.1 37.2 83% 30.01 0.0
05 05:15 Calm 10.00 Fair CLR 42.6 37.2 81% 30.01 0.0
05 04:55 NW 3 10.00 Fair CLR 41.7 36.3 81% 30 0.0
05 04:35 Calm 10.00 Fair CLR 42.8 36.3 78% 29.99 0.0
05 04:15 Calm 10.00 Fair CLR 44.6 38.5 79% 29.99 0.0
05 03:55 Calm 10.00 Fair CLR 43.7 37.9 80% 29.98 0.0
05 03:35 NW 3 10.00 Fair CLR 43.9 37.4 78% 29.98 0.0
05 03:15 Calm 10.00 Fair CLR 45.5 38.1 76% 29.97 0.0
05 02:55 NW 3 10.00 Fair CLR 47.3 38.3 71% 29.97 0.0
05 02:35 Calm 10.00 Fair CLR 46.8 37.8 71% 29.97 0.0
05 02:15 Calm 10.00 Fair CLR 48.2 37.8 67% 29.97 0.0
05 01:55 Calm 10.00 Fair CLR 52.3 37.6 71.6 50 57% 29.97 0.0
05 01:35 S 3 10.00 Fair CLR 52.3 37.9 58% 29.97 0.0
05 01:15 Calm 10.00 Fair CLR 51.6 37.4 58% 29.97 0.0
05 00:55 Calm 10.00 Fair CLR 52.7 36.9 55% 29.97 0.0
05 00:35 SW 3 10.00 Fair CLR 55.4 36.1 48% 29.96 0.0
05 00:15 SW 3 10.00 Fair CLR 55.8 36.9 49% 29.96 0.0
04 23:55 Calm 10.00 Fair CLR 56.3 37.4 49% 29.97 0.0
04 23:35 SW 3 10.00 Fair CLR 54.9 39.4 56% 29.97 0.0
04 23:15 SW 3 10.00 Fair CLR 56.1 39 53% 29.98 0.0
04 22:55 SW 5 10.00 Fair CLR 58.6 37.4 45% 29.98 0.0
04 22:35 SW 3 10.00 Fair CLR 60.4 36.7 41% 29.97 0.0
04 22:15 SW 5 10.00 Fair CLR 62.8 35.6 36% 29.97 0.0
04 21:55 SW 3 10.00 Fair CLR 62.6 36.7 38% 29.97 0.0
04 21:35 S 3 10.00 Fair CLR 64.2 36 35% 29.97 0.0
04 21:15 SW 3 10.00 Fair CLR 65.1 36.5 35% 29.96 0.0
04 20:55 SW 5 10.00 Fair CLR 67.8 34.9 30% 29.95 0.0
04 20:35 SW 5 10.00 Fair CLR 68.5 34.9 29% 29.95 0.0
04 20:15 SW 5 10.00 Fair CLR 70.3 34.2 26% 29.95 0.0
04 19:55 SW 3 10.00 Fair CLR 71.8 33.8 78.1 71.8 25% 29.94 0.0
04 19:35 SW 6 10.00 Fair CLR 73.4 32.9 23% 29.93 0.0
04 19:15 SW 9 10.00 Fair CLR 74.5 33.8 23% 29.93 0.0
04 18:55 S 8 10.00 Fair CLR 75.2 33.3 22% 76 29.93 0.0
04 18:35 S 7 G 16 10.00 Partly Cloudy SCT080 75.9 33.1 21% 76 29.93 0.0
04 18:15 S 8 10.00 Fair CLR 77 33.8 21% 77 29.93 0.0
04 17:55 W 7 10.00 Fair CLR 77.2 33.3 20% 77 29.93 0.0
04 17:35 SW 7 10.00 Fair CLR 77.2 34 21% 77 29.93 0.0
04 17:15 S 9 10.00 Partly Cloudy SCT070 SCT080 77.5 34.3 21% 77 29.93 0.0
04 16:55 W 10 10.00 Partly Cloudy SCT070 78.1 35.2 21% 78 29.93 0.0
04 16:35 SW 10 G 16 10.00 Fair CLR 76.3 35.4 23% 77 29.93 0.0
04 16:15 W 9 10.00 Fair CLR 76.3 34.9 22% 77 29.94 0.0
04 15:55 W 8 G 16 10.00 Fair CLR 76.1 34.9 22% 77 29.95 0.0
04 15:35 W 7 10.00 Fair CLR 76.3 34.5 22% 77 29.96 0.0
04 15:15 SW 12 10.00 Fair CLR 75.7 34.5 22% 77 29.97 0.0
04 14:55 SW 8 G 17 10.00 Fair CLR 74.1 34.2 23% 29.97 0.0
04 14:35 SW 9 G 20 10.00 Fair CLR 73.4 33.3 23% 29.98 0.0
04 14:15 W 7 10.00 Fair CLR 73.6 34.3 24% 29.99 0.0
04 13:55 SW 10 10.00 Fair CLR 72.9 33.4 72.9 39 24% 30 0.0
04 13:35 SW 13 G 17 10.00 Fair CLR 72.9 32.4 23% 29.99 0.0
04 13:15 W 9 G 16 10.00 Fair CLR 72.3 33.1 24% 30 0.0
04 12:55 S 10 10.00 Fair CLR 70.5 31.8 24% 30.01 0.0
04 12:35 S 3 10.00 Fair CLR 68.9 31.6 25% 30.01 0.0
04 11:55 S 6 10.00 Fair CLR 67.1 31.5 27% 30.04 0.0
04 11:35 SW 7 10.00 Fair CLR 66.7 31.6 27% 30.05 0.0
04 11:15 W 6 10.00 Fair CLR 65.7 29.3 26% 30.05 0.0
04 10:55 SW 7 10.00 Fair CLR 65.8 29.3 25% 30.05 0.0
04 10:35 SW 9 G 16 10.00 Fair CLR 64.8 28.6 26% 30.05 0.0
04 10:15 SW 5 10.00 Fair CLR 62.6 31.8 32% 30.05 0.0
04 09:55 W 5 10.00 Partly Cloudy SCT110 61.2 32.2 34% 30.05 0.0
04 09:35 W 3 10.00 Mostly Cloudy BKN120 59 32.2 36% 30.05 0.0
04 09:15 SW 3 10.00 Overcast OVC120 55.9 32 40% 30.05 0.0
04 08:55 Calm 10.00 Partly Cloudy SCT120 51.3 33.6 51% 30.05 0.0
04 08:35 Calm 10.00 Fair CLR 46.9 34.3 62% 30.05 0.0
04 08:15 Calm 10.00 Partly Cloudy SCT120 42.1 34.7 75% 30.05 0.0
04 07:55 Calm 10.00 Partly Cloudy SCT120 38.7 33.6 38.7 32 82% 30.06 0.0
04 07:35 Calm 10.00 Fair CLR 36.9 32.5 84% 30.05 0.0
04 07:15 Calm 10.00 Fair CLR 36 32 86% 30.06 0.0
04 06:55 Calm 10.00 Partly Cloudy SCT120 35.1 31.6 87% 30.05 0.0
04 06:35 Calm 10.00 Partly Cloudy SCT120 33.6 30.2 87% 30.06 0.0
04 06:15 Calm 10.00 Fair CLR 33.1 30 89% 30.05 0.0
04 05:55 Calm 10.00 Fair CLR 33.4 30.2 88% 30.05 0.0
04 05:35 Calm 10.00 Fair CLR 32.9 29.5 87% 30.06 0.0
04 05:15 Calm 10.00 Fair CLR 32.2 28.8 87% 30.05 0.0
04 04:55 Calm 10.00 Fair CLR 33.4 30.2 88% 30.05 0.0
04 04:35 Calm 10.00 Fair CLR 33.6 30.2 87% 30.05 0.0
04 04:15 Calm 10.00 Fair CLR 33.6 30 87% 30.06 0.0
04 03:55 Calm 10.00 Fair CLR 33.8 30.2 87% 30.05 0.0
04 03:35 Calm 10.00 Fair CLR 33.8 30 86% 30.05 0.0
04 03:15 Calm 10.00 Fair CLR 34.7 30.9 86% 30.05 0.0
04 02:55 Calm 10.00 Fair CLR 35.1 31.1 86% 30.05 0.0
04 02:35 Calm 10.00 Fair CLR 35.6 31.5 85% 30.05 0.0
04 02:15 Calm 10.00 Fair CLR 36.5 32 84% 30.05 0.0
04 01:55 NW 3 10.00 Fair CLR 35.8 30.9 59.7 35.8 83% 30.05 0.0
04 01:35 Calm 10.00 Partly Cloudy SCT120 38.1 32.2 79% 30.05 0.0
04 01:15 Calm 10.00 Fair CLR 37.4 32 81% 30.06 0.0
04 00:55 Calm 10.00 Partly Cloudy SCT120 38.5 32 78% 30.06 0.0
04 00:35 Calm 10.00 Fair CLR 38.1 31.5 77% 30.06 0.0
04 00:15 Calm 10.00 Fair CLR 37.9 31.5 78% 30.06 0.0
03 23:55 Calm 10.00 Fair CLR 38.8 31.8 76% 30.06 0.0
03 23:35 Calm 10.00 Fair CLR 40.3 31.6 71% 30.05 0.0
03 23:15 Calm 10.00 Fair CLR 40.6 31.3 69% 30.06 0.0
03 22:55 Calm 10.00 Fair CLR 42.3 32 67% 30.06 0.0
03 22:35 Calm 10.00 Fair CLR 42.8 30.9 63% 30.05 0.0
03 22:15 Calm 10.00 Fair CLR 42.8 30.6 62% 30.05 0.0
03 21:55 Calm 10.00 Fair CLR 44.8 29.3 55% 30.04 0.0
03 21:35 Calm 10.00 Fair CLR 45.1 29.3 54% 30.03 0.0
03 21:15 Calm 10.00 Fair CLR 48.4 28.9 47% 30.02 0.0
03 20:55 Calm 10.00 Fair CLR 50.7 27.3 40% 30.02 0.0
03 20:35 Calm 10.00 Fair CLR 52.2 28.2 40% 30.02 0.0
03 20:15 Calm 10.00 Fair CLR 55.4 25.3 31% 30.01 0.0
03 19:55 Calm 10.00 Fair CLR 60.1 19.6 66.6 59.7 21% 30.01 0.0
03 19:35 S 3 10.00 Fair CLR 62.6 15.4 16% 30 0.0
03 19:15 SW 5 10.00 Fair CLR 64.4 11.5 12% 30 0.0
03 18:55 SW 5 10.00 Fair CLR 65.3 6.3 9% 30 0.0
03 18:35 W 5 10.00 Fair CLR 65.7 7.2 10% 30.01 0.0
03 18:15 SW 8 10.00 Fair CLR 65.7 4.1 8% 30.01 0.0
03 17:55 W 7 10.00 Fair CLR 66.2 1.8 7% 30.02 0.0
03 17:35 W 7 G 16 10.00 Fair CLR 66.2 5.2 9% 30.02 0.0
03 17:15 SW 5 10.00 Fair CLR 66.2 0.9 7% 30.02 0.0
03 16:55 SW 8 10.00 Fair CLR 66 4.6 9% 30.02 0.0
03 16:35 SW 12 10.00 Fair CLR 65.7 6.1 9% 30.03 0.0
03 16:15 S 5 10.00 Fair CLR 64.8 5.2 9% 30.04 0.0
03 15:55 SW 9 10.00 Fair CLR 64.4 6.6 10% 30.05 0.0
03 15:35 N 8 10.00 Fair CLR 64 9.3 11% 30.05 0.0
03 15:15 E 3 10.00 Fair CLR 63.3 8.8 11% 30.06 0.0
03 14:55 N 7 10.00 Fair CLR 62.8 9.5 12% 30.08 0.0
03 14:35 W 3 10.00 Fair CLR 62.4 8.8 12% 30.08 0.0
03 14:15 W 3 10.00 Fair CLR 61.2 9.9 13% 30.09 0.0
03 13:55 W 5 10.00 Fair CLR 60.8 9.5 61.3 36.3 13% 30.1 0.0
03 13:35 W 6 10.00 Fair CLR 59 6.6 12% 30.1 0.0
03 13:15 NW 7 10.00 Fair CLR 57.7 12.4 16% 30.11 0.0
03 12:55 NW 8 G 21 10.00 Fair CLR 58.3 12.7 16% 30.12 0.0
03 12:35 N 8 10.00 Fair CLR 57.2 14.7 19% 30.13 0.0
03 12:15 NW 10 10.00 Fair CLR 56.5 15.6 20% 30.14 0.0
03 11:55 W 8 10.00 Fair CLR 54.9 15.4 21% 30.14 0.0
03 11:35 NW 5 10.00 Fair CLR 53.8 15.6 22% 30.15 0.0
03 11:15 N 9 10.00 Fair CLR 53.4 17.1 24% 30.15 0.0
03 10:55 N 9 G 16 10.00 Fair CLR 52.5 17.2 25% 30.15 0.0
03 10:35 N 12 G 17 10.00 Fair CLR 51.6 18.9 27% 30.15 0.0
03 10:15 NW 9 10.00 Fair CLR 50.9 19.2 29% 30.15 0.0
03 09:55 NW 13 G 17 10.00 Fair CLR 50 19 29% 46 30.15 0.0
03 09:35 NW 12 G 16 10.00 Fair CLR 49.1 20.5 32% 45 30.15 0.0
03 09:15 N 13 G 20 10.00 Fair CLR 47.7 22.5 37% 43 30.15 0.0
03 08:55 NW 5 10.00 Fair CLR 46 25.2 44% 44 30.15 0.0
03 08:35 Calm 10.00 Fair CLR 44.4 27.9 52% 30.15 0.0
03 08:15 Calm 10.00 Fair CLR 40.5 31.8 71% 30.14 0.0
03 07:55 Calm 10.00 Fair CLR 35.8 30.4 35.8 28.9 81% 30.13 0.0
03 07:35 Calm 10.00 Fair CLR 32 28 85% 30.13 0.0
03 07:15 Calm 10.00 Fair CLR 31.1 27.3 86% 30.13 0.0
03 06:55 Calm 10.00 Fair CLR 29.3 25.5 86% 30.11 0.0
03 06:35 Calm 10.00 Fair CLR 29.1 25.2 85% 30.1 0.0
03 06:15 Calm 10.00 Fair CLR 30 26.1 85% 30.08 0.0
03 05:55 NW 3 10.00 Fair CLR 29.1 25.2 85% 30.08 0.0
03 05:35 Calm 10.00 Fair CLR 30.7 26.6 85% 30.08 0.0
03 05:15 Calm 10.00 Fair CLR 30.9 27 85% 30.08 0.0
03 04:55 Calm 10.00 Fair CLR 31.5 27.3 85% 30.07 0.0
03 04:35 Calm 10.00 Fair CLR 31.8 27.7 85% 30.06 0.0
03 04:15 NW 3 10.00 Fair CLR 31.1 26.8 84% 30.05 0.0
03 03:55 Calm 10.00 Fair CLR 31.6 27.3 84% 30.05 0.0
03 03:35 Calm 10.00 Fair CLR 31.5 27 83% 30.05 0.0
03 03:15 NW 5 10.00 Fair CLR 32 27.7 84% 28 30.05 0.0
03 02:55 Calm 10.00 Fair CLR 32.2 28 85% 30.05 0.0
03 02:35 Calm 10.00 Fair CLR 33.3 28.4 82% 30.04 0.0
03 02:15 Calm 10.00 Fair CLR 33.3 28.6 83% 30.03 0.0
03 01:55 Calm 10.00 Fair CLR 33.8 28.9 55.6 33.6 82% 30.04 0.0
03 01:35 Calm 10.00 Fair CLR 34.9 28.9 79% 30.04 0.0
03 01:15 Calm 10.00 Fair CLR 35.1 28.9 78% 30.03 0.0
03 00:55 Calm 10.00 Fair CLR 36.9 29.7 75% 30.03 0.0
03 00:35 Calm 10.00 Fair CLR 37.9 28.2 68% 30.03 0.0
03 00:15 Calm 10.00 Fair CLR 37.6 28.2 69% 30.02 0.0
02 23:55 NW 3 10.00 Fair CLR 38.8 28.4 66% 30.02 0.0
02 23:35 NW 5 10.00 Fair CLR 40.8 27.3 59% 38 30.02 0.0
02 23:15 NW 3 10.00 Fair CLR 41 27 57% 30.01 0.0
02 22:55 Calm 10.00 Fair CLR 43.7 25.7 49% 30 0.0
02 22:15 NW 5 10.00 Fair CLR 45.5 24.4 44% 44 30 0.0
02 21:55 NW 3 10.00 Fair CLR 47.8 23.5 38% 30 0.0
02 21:35 NW 5 10.00 Fair CLR 50 22.6 34% 49 29.98 0.0
02 21:15 N 8 10.00 Fair CLR 50.2 23 34% 29.98 0.0
02 20:55 NW 5 10.00 Fair CLR 49.3 23.7 37% 48 29.97 0.0
02 20:35 N 9 10.00 Partly Cloudy SCT100 52.7 21.7 30% 29.96 0.0
02 20:15 N 3 10.00 Partly Cloudy SCT100 53.4 22.3 30% 29.95 0.0
02 19:55 N 8 10.00 Overcast OVC100 55.8 20.3 64.4 55.8 25% 29.94 0.0
02 19:35 N 8 G 18 10.00 Overcast OVC090 57.2 20.5 24% 29.93 0.0
02 19:15 N 10 G 20 10.00 Overcast OVC090 58.1 19.8 22% 29.93 0.0
Date Time (edt) Wind (mph) Vis. (mi.) Weather Sky Cond. Air Dwpt Max. Min. Relative Humidity Wind Chill (°F) Heat Index (°F) altimeter (in) sea level (mb) 1 hr 3 hr 6 hr
6 hour
Temperature (ºF) Pressure Precipitation (in)